Time;durP1;ratioP1;P1;durP2;ratioP2;P2;SDS_P1;SDS_P2;PMS_P1;PMS_P2;Temp;Humidity;BMP_temperature;BMP_pressure;BME280_temperature;BME280_humidity;BME280_pressure;Samples;Min_cycle;Max_cycle;Signal;HPM_P1;HPM_P2
2022/05/13 00:01:35;;;;;;;9.48;5.57;;;;;;;18.38;100.00;97073.78;5046667;28;20037;-68
2022/05/13 00:04:01;;;;;;;8.38;4.60;;;;;;;18.27;100.00;97077.44;5033324;28;20087;-68
2022/05/13 00:06:26;;;;;;;10.93;4.97;;;;;;;18.32;100.00;97076.22;5032604;28;20156;-68
2022/05/13 00:08:52;;;;;;;9.77;5.47;;;;;;;18.25;100.00;97076.28;5033068;28;20041;-68
2022/05/13 00:11:17;;;;;;;7.78;4.65;;;;;;;18.40;100.00;97072.19;5033001;28;20041;-69
2022/05/13 00:13:43;;;;;;;8.45;4.22;;;;;;;18.57;100.00;97069.69;5053553;28;20043;-68
2022/05/13 00:16:09;;;;;;;10.27;4.15;;;;;;;18.57;100.00;97070.47;5053502;28;20086;-68
2022/05/13 00:18:34;;;;;;;11.73;4.75;;;;;;;18.58;100.00;97074.78;5063077;28;20071;-67
2022/05/13 00:21:00;;;;;;;7.72;4.05;;;;;;;18.53;100.00;97073.25;5071182;28;20037;-68
2022/05/13 00:23:26;;;;;;;10.90;3.95;;;;;;;18.58;100.00;97085.88;5057812;28;20033;-69
2022/05/13 00:25:52;;;;;;;9.25;4.80;;;;;;;18.56;100.00;97079.19;5069349;28;20064;-68
2022/05/13 00:28:17;;;;;;;8.82;4.65;;;;;;;18.48;100.00;97084.78;5054048;28;20109;-67
2022/05/13 00:30:48;;;;;;;9.75;4.45;;;;;;;18.49;100.00;97068.94;5052085;28;20438;-67
2022/05/13 00:33:14;;;;;;;7.82;4.40;;;;;;;18.48;100.00;97061.81;5060209;28;20097;-69
2022/05/13 00:35:40;;;;;;;8.95;4.65;;;;;;;18.23;100.00;97056.50;5071219;28;20037;-69
2022/05/13 00:38:06;;;;;;;7.25;4.53;;;;;;;17.90;100.00;97059.50;5066132;28;20033;-70
2022/05/13 00:40:32;;;;;;;7.68;4.78;;;;;;;17.81;100.00;97066.66;5046823;28;20045;-68
2022/05/13 00:43:01;;;;;;;9.60;4.65;;;;;;;17.72;100.00;97056.03;5037004;28;20037;-69
2022/05/13 00:45:27;;;;;;;12.25;5.50;;;;;;;17.69;100.00;97062.38;5036829;28;20029;-69
2022/05/13 00:47:52;;;;;;;10.43;4.85;;;;;;;17.78;100.00;97057.19;5034517;28;20030;-69
2022/05/13 00:50:19;;;;;;;9.43;4.60;;;;;;;17.75;100.00;97050.47;5032971;28;20028;-68
2022/05/13 00:52:49;;;;;;;8.32;5.38;;;;;;;17.96;100.00;97054.31;5032482;28;20675;-68
2022/05/13 00:55:23;;;;;;;16.17;5.38;;;;;;;17.89;100.00;97043.28;5032709;28;20037;-68
2022/05/13 00:57:50;;;;;;;10.13;5.00;;;;;;;17.56;100.00;97045.44;5032206;28;20032;-67
2022/05/13 01:00:16;;;;;;;9.95;5.38;;;;;;;17.23;100.00;97044.81;5032409;28;20090;-68
2022/05/13 01:02:43;;;;;;;11.70;7.15;;;;;;;16.74;100.00;97047.31;5030911;28;20835;-70
2022/05/13 01:05:11;;;;;;;10.23;6.20;;;;;;;16.39;100.00;97037.91;5032304;28;20029;-69
2022/05/13 01:07:37;;;;;;;17.13;6.22;;;;;;;16.39;100.00;97035.16;5031453;28;20063;-69
2022/05/13 01:10:05;;;;;;;9.98;6.63;;;;;;;16.53;100.00;97031.56;5032385;28;20059;-69
2022/05/13 01:12:38;;;;;;;11.48;6.70;;;;;;;16.42;100.00;97028.03;5032885;28;20044;-68
2022/05/13 01:15:10;;;;;;;12.35;6.75;;;;;;;16.27;100.00;97024.50;5032624;28;20117;-69
2022/05/13 01:20:27;;;;;;;11.00;6.45;;;;;;;16.16;100.00;97024.50;5032328;28;20048;-68
2022/05/13 01:23:00;;;;;;;12.90;7.00;;;;;;;16.01;100.00;97029.25;5032205;28;20029;-69
2022/05/13 01:25:28;;;;;;;12.52;7.35;;;;;;;16.11;100.00;97032.41;5029970;28;20075;-69
2022/05/13 01:27:56;;;;;;;11.45;6.40;;;;;;;16.11;100.00;97032.41;5031811;28;20114;-66
2022/05/13 01:30:25;;;;;;;10.48;6.60;;;;;;;16.13;100.00;97028.03;5031763;28;20029;-68
2022/05/13 01:32:51;;;;;;;8.77;6.03;;;;;;;16.11;100.00;97019.38;5031936;28;20457;-68
2022/05/13 01:35:17;;;;;;;14.18;7.05;;;;;;;16.10;100.00;97012.28;5030347;28;20125;-70
2022/05/13 01:37:43;;;;;;;14.52;7.20;;;;;;;16.11;100.00;97013.06;5030529;28;21355;-70
2022/05/13 01:40:09;;;;;;;11.75;6.63;;;;;;;16.08;100.00;97011.88;5031738;28;20045;-69
2022/05/13 01:42:35;;;;;;;9.05;6.22;;;;;;;16.14;100.00;97002.00;5034443;28;20083;-69
2022/05/13 01:45:01;;;;;;;8.80;5.72;;;;;;;16.21;100.00;97004.75;5032846;28;20033;-70
2022/05/13 01:47:28;;;;;;;13.77;6.35;;;;;;;16.34;100.00;97001.59;5032234;28;20037;-68
2022/05/13 01:49:55;;;;;;;11.52;5.93;;;;;;;16.77;100.00;97004.25;5033062;28;20083;-69
2022/05/13 01:52:20;;;;;;;13.90;5.53;;;;;;;16.80;100.00;97007.00;5032423;28;20037;-70
2022/05/13 01:54:46;;;;;;;12.38;5.57;;;;;;;16.97;100.00;97002.63;5032610;28;20044;-69
2022/05/13 01:57:11;;;;;;;11.07;5.78;;;;;;;16.94;100.00;97002.63;5030320;28;20079;-70
2022/05/13 01:59:37;;;;;;;8.57;4.90;;;;;;;16.85;100.00;97005.03;5031509;28;20037;-69
2022/05/13 02:02:03;;;;;;;11.30;5.93;;;;;;;16.87;100.00;97011.78;5032263;28;20520;-69
2022/05/13 02:04:29;;;;;;;10.75;4.70;;;;;;;16.85;100.00;97008.59;5031458;28;20034;-68
2022/05/13 02:06:55;;;;;;;10.38;5.63;;;;;;;16.66;100.00;96996.00;5030929;28;20033;-68
2022/05/13 02:09:20;;;;;;;11.23;6.35;;;;;;;16.60;100.00;97000.34;5031651;28;20032;-68
2022/05/13 02:11:46;;;;;;;10.68;5.93;;;;;;;16.59;100.00;96996.00;5032059;28;20104;-69
2022/05/13 02:14:15;;;;;;;14.48;7.72;;;;;;;16.53;100.00;96994.81;5032074;28;20069;-69
2022/05/13 02:16:40;;;;;;;9.47;6.23;;;;;;;16.47;100.00;96988.91;5031482;28;20037;-68
2022/05/13 02:19:06;;;;;;;12.15;7.03;;;;;;;16.41;100.00;96991.31;5030356;28;20271;-69
2022/05/13 02:21:31;;;;;;;11.50;6.63;;;;;;;16.40;100.00;96984.22;5023356;28;20501;-69
2022/05/13 02:23:57;;;;;;;10.57;6.50;;;;;;;16.42;100.00;96981.03;5022323;28;20037;-69
2022/05/13 02:26:22;;;;;;;10.48;6.53;;;;;;;16.50;100.00;96977.06;5030585;28;20117;-68
2022/05/13 02:28:47;;;;;;;11.18;6.43;;;;;;;16.54;100.00;96974.28;5023428;28;20036;-69
2022/05/13 02:31:14;;;;;;;16.77;6.38;;;;;;;16.57;100.00;96968.75;5031804;28;20500;-67
2022/05/13 02:33:41;;;;;;;12.60;6.40;;;;;;;16.59;100.00;96960.84;5029875;28;20034;-69
2022/05/13 02:36:07;;;;;;;12.73;7.95;;;;;;;16.51;100.00;96966.78;5018372;28;20489;-68
2022/05/13 02:38:33;;;;;;;9.10;5.40;;;;;;;16.52;100.00;96974.69;5031215;28;20052;-68
2022/05/13 02:41:11;;;;;;;13.25;5.65;;;;;;;16.62;100.00;96968.34;5065253;22;20045;-65
2022/05/13 02:43:38;;;;;;;10.77;5.65;;;;;;;16.85;100.00;96974.63;5050490;28;20032;-63
2022/05/13 02:46:04;;;;;;;10.35;5.95;;;;;;;16.99;100.00;96969.03;5039936;28;20044;-62
2022/05/13 02:48:29;;;;;;;8.38;5.05;;;;;;;17.07;100.00;96975.28;5050047;28;20048;-63
2022/05/13 02:50:55;;;;;;;11.55;5.20;;;;;;;17.05;100.00;96978.50;5042725;28;20029;-61
2022/05/13 02:53:21;;;;;;;9.52;5.18;;;;;;;17.07;100.00;96973.34;5042743;28;20547;-63
2022/05/13 02:55:46;;;;;;;7.45;4.93;;;;;;;17.09;100.00;96968.19;5047142;28;20021;-63
2022/05/13 02:58:11;;;;;;;7.72;5.40;;;;;;;16.92;100.00;96972.59;5048025;28;20708;-63
2022/05/13 03:00:37;;;;;;;8.80;5.55;;;;;;;16.90;100.00;96972.22;5041973;28;20025;-64
2022/05/13 03:03:04;;;;;;;6.30;5.18;;;;;;;16.89;100.00;96983.69;5045672;28;20030;-65
2022/05/13 03:05:30;;;;;;;9.93;5.75;;;;;;;16.85;100.00;96980.16;5037292;28;20042;-64
2022/05/13 03:07:57;;;;;;;7.55;5.05;;;;;;;16.78;100.00;96978.97;5042216;28;20037;-64
2022/05/13 03:10:23;;;;;;;10.35;5.40;;;;;;;16.87;100.00;96969.47;5048142;28;20037;-64
2022/05/13 03:12:48;;;;;;;8.00;5.30;;;;;;;16.96;100.00;96978.13;5041936;28;20744;-64
2022/05/13 03:15:13;;;;;;;9.35;4.97;;;;;;;16.94;100.00;96980.50;5050563;28;20509;-63
2022/05/13 03:17:42;;;;;;;9.32;4.60;;;;;;;16.92;100.00;96980.91;5049675;28;20052;-64
2022/05/13 03:20:14;;;;;;;9.15;5.20;;;;;;;16.98;100.00;96981.28;5041099;28;20493;-63
2022/05/13 03:22:40;;;;;;;10.40;5.65;;;;;;;17.02;100.00;96979.28;5050286;28;20040;-62
2022/05/13 03:25:06;;;;;;;9.23;5.18;;;;;;;17.05;100.00;96975.72;5048712;28;20030;-63
2022/05/13 03:27:31;;;;;;;10.57;4.75;;;;;;;16.99;100.00;96974.56;5049463;28;20431;-64
2022/05/13 03:29:57;;;;;;;7.45;4.78;;;;;;;17.16;100.00;96979.22;5049195;28;20056;-63
2022/05/13 03:32:23;;;;;;;8.85;5.10;;;;;;;17.15;100.00;96968.56;5040418;28;20025;-63
2022/05/13 03:34:48;;;;;;;7.05;4.53;;;;;;;17.11;100.00;96970.56;5047053;28;20644;-62
2022/05/13 03:37:13;;;;;;;6.68;4.55;;;;;;;17.10;100.00;96964.22;5043464;28;20036;-63
2022/05/13 03:39:39;;;;;;;7.90;5.22;;;;;;;16.97;100.00;96971.41;5049897;28;20389;-63
2022/05/13 03:42:04;;;;;;;11.27;5.35;;;;;;;16.80;100.00;96964.75;5044290;28;20030;-63
2022/05/13 03:44:31;;;;;;;10.82;5.00;;;;;;;16.95;100.00;96963.50;5044200;28;20025;-63
2022/05/13 03:46:56;;;;;;;10.32;5.00;;;;;;;16.91;100.00;96959.19;5044602;28;20025;-63
2022/05/13 03:49:22;;;;;;;6.95;5.35;;;;;;;16.91;100.00;96964.72;5045137;28;20032;-62
2022/05/13 03:51:47;;;;;;;7.10;4.70;;;;;;;16.95;100.00;96971.03;5049953;28;20033;-62
2022/05/13 03:54:12;;;;;;;11.25;4.97;;;;;;;17.05;100.00;96963.84;5050033;28;20106;-63
2022/05/13 03:56:38;;;;;;;10.18;5.13;;;;;;;17.10;100.00;96964.22;5047702;28;20036;-63
2022/05/13 03:59:03;;;;;;;12.57;5.15;;;;;;;17.05;100.00;96970.19;5044161;28;20060;-63
2022/05/13 04:01:29;;;;;;;7.47;4.93;;;;;;;16.87;100.00;96978.56;5048211;28;20049;-63
2022/05/13 04:03:54;;;;;;;11.32;5.55;;;;;;;16.70;100.00;96982.94;5049872;28;20098;-62
2022/05/13 04:09:06;;;;;;;9.20;4.70;;;;;;;16.73;100.00;96982.13;5031298;28;20043;-63
2022/05/13 04:11:37;;;;;;;8.30;4.85;;;;;;;16.76;100.00;96977.78;5044968;28;20035;-64
2022/05/13 04:16:52;;;;;;;13.90;5.15;;;;;;;16.50;100.00;96993.66;5048800;28;20036;-62
2022/05/13 04:19:19;;;;;;;7.95;5.15;;;;;;;16.42;100.00;96989.31;5049915;28;20025;-63
2022/05/13 04:21:46;;;;;;;8.57;5.60;;;;;;;16.42;100.00;97003.13;5050122;28;20037;-63
2022/05/13 04:24:16;;;;;;;12.18;5.38;;;;;;;16.46;100.00;97005.91;5042295;28;20052;-64
2022/05/13 04:26:43;;;;;;;8.90;5.78;;;;;;;16.38;100.00;97011.44;5044675;28;20033;-63
2022/05/13 04:29:09;;;;;;;7.43;5.03;;;;;;;16.56;100.00;97003.13;5052841;28;20485;-62
2022/05/13 04:31:39;;;;;;;8.00;5.65;;;;;;;16.77;100.00;96995.97;5051625;28;20079;-63
2022/05/13 04:34:06;;;;;;;11.48;5.82;;;;;;;16.92;100.00;97002.25;5046198;28;20028;-63
2022/05/13 04:36:32;;;;;;;10.88;5.13;;;;;;;16.92;100.00;96997.50;5042936;28;20028;-64
2022/05/13 04:38:58;;;;;;;9.98;5.47;;;;;;;16.79;100.00;97001.88;5051831;28;20397;-66
2022/05/13 04:44:10;;;;;;;10.70;5.90;;;;;;;16.77;100.00;97009.78;5052899;28;20036;-64
2022/05/13 04:46:37;;;;;;;8.80;5.78;;;;;;;17.10;100.00;96997.41;5042863;28;20029;-66
2022/05/13 04:49:03;;;;;;;7.60;5.45;;;;;;;17.20;100.00;97004.13;5052713;28;20020;-70
2022/05/13 04:51:28;;;;;;;13.25;5.93;;;;;;;17.39;100.00;97006.38;5052484;28;20029;-65
2022/05/13 04:53:56;;;;;;;8.48;5.10;;;;;;;17.11;100.00;97003.75;5046679;28;20036;-66
2022/05/13 04:56:22;;;;;;;7.38;5.22;;;;;;;17.45;100.00;97006.75;5047432;28;20037;-64
2022/05/13 04:58:48;;;;;;;8.23;5.40;;;;;;;17.70;100.00;97008.53;5049558;28;20407;-63
2022/05/13 05:01:15;;;;;;;8.93;4.55;;;;;;;18.04;100.00;97010.69;5040057;28;20386;-63
2022/05/13 05:03:41;;;;;;;8.77;5.32;;;;;;;18.08;100.00;97008.72;5050978;28;20055;-66
2022/05/13 05:06:07;;;;;;;9.05;4.93;;;;;;;18.01;100.00;97009.56;5050772;28;20040;-64
2022/05/13 05:08:32;;;;;;;9.15;5.25;;;;;;;18.14;100.00;97013.38;5044908;28;20635;-63
2022/05/13 05:10:58;;;;;;;11.20;4.47;;;;;;;18.40;100.00;97016.75;5050966;28;20413;-65
2022/05/13 05:13:29;;;;;;;10.38;4.47;;;;;;;18.61;100.00;97010.16;5052036;28;20077;-66
2022/05/13 05:15:56;;;;;;;9.07;5.10;;;;;;;18.75;100.00;97014.78;5050295;28;20064;-64
2022/05/13 05:18:21;;;;;;;6.28;4.32;;;;;;;19.28;100.00;97007.84;5052405;28;20024;-65
2022/05/13 05:20:47;;;;;;;8.25;4.22;;;;;;;19.44;100.00;97012.00;5048453;28;20021;-62
2022/05/13 05:23:24;;;;;;;7.90;4.72;;;;;;;19.32;100.00;97021.69;5046388;28;20114;-65
2022/05/13 05:25:50;;;;;;;7.43;4.80;;;;;;;18.98;100.00;97022.50;5051356;28;20434;-62
2022/05/13 05:28:16;;;;;;;12.25;4.70;;;;;;;18.83;100.00;97021.84;5051588;28;20052;-61
2022/05/13 05:30:43;;;;;;;10.30;5.15;;;;;;;18.68;100.00;97017.66;5050798;28;20032;-65
2022/05/13 05:33:10;;;;;;;13.88;5.03;;;;;;;18.29;100.00;97027.13;5050143;28;20464;-62
2022/05/13 05:35:36;;;;;;;10.18;6.53;;;;;;;17.84;100.00;97018.75;5041448;28;20094;-65
2022/05/13 05:38:02;;;;;;;8.40;5.60;;;;;;;17.58;100.00;97023.69;5040106;28;20421;-64
2022/05/13 05:40:32;;;;;;;7.93;5.50;;;;;;;17.56;100.00;97026.06;5035843;28;20028;-65
2022/05/13 05:43:09;;;;;;;7.03;5.30;;;;;;;17.59;100.00;97016.94;5042637;28;20409;-66
2022/05/13 05:45:37;;;;;;;7.78;5.63;;;;;;;17.46;100.00;97013.84;5048622;28;20053;-65
2022/05/13 05:48:03;;;;;;;9.35;5.25;;;;;;;18.91;100.00;97022.56;5051549;28;20112;-66
2022/05/13 05:50:28;;;;;;;9.27;4.50;;;;;;;20.96;97.61;97019.47;5041949;28;20112;-65
2022/05/13 05:52:53;;;;;;;6.63;4.22;;;;;;;22.86;84.51;97015.03;5051165;28;20555;-65
2022/05/13 05:58:09;;;;;;;6.72;3.65;;;;;;;24.71;68.34;97017.38;5045365;28;20111;-64
2022/05/13 06:00:38;;;;;;;10.27;3.72;;;;;;;23.67;73.42;97021.50;5050374;28;20052;-64
2022/05/13 06:03:04;;;;;;;6.55;3.40;;;;;;;22.48;79.04;97021.22;5050380;28;20037;-64
2022/05/13 06:05:30;;;;;;;12.57;3.10;;;;;;;21.91;82.24;97025.41;5040930;28;20033;-66
2022/05/13 06:07:58;;;;;;;6.38;3.50;;;;;;;21.16;86.64;97034.16;5051523;28;20048;-64
2022/05/13 06:10:24;;;;;;;7.88;4.60;;;;;;;20.15;92.20;97035.19;5046729;28;20043;-65
2022/05/13 06:12:50;;;;;;;7.38;4.45;;;;;;;20.18;90.80;97033.53;5048754;28;20037;-65
2022/05/13 06:15:16;;;;;;;12.70;4.07;;;;;;;20.07;92.42;97039.28;5050991;28;20368;-65
2022/05/13 06:17:46;;;;;;;9.07;3.80;;;;;;;19.82;96.30;97036.88;5050549;28;20032;-64
2022/05/13 06:20:13;;;;;;;9.02;3.40;;;;;;;19.90;95.61;97040.31;5051304;28;20029;-66
2022/05/13 06:22:39;;;;;;;9.30;4.28;;;;;;;19.74;99.92;97047.31;5041839;28;20583;-65
2022/05/13 06:25:05;;;;;;;10.85;4.50;;;;;;;19.58;100.00;97050.69;5049588;28;20032;-65
2022/05/13 06:27:30;;;;;;;8.40;4.18;;;;;;;19.70;98.81;97051.31;5057839;28;20021;-65
2022/05/13 06:29:56;;;;;;;8.20;3.92;;;;;;;19.77;99.66;97051.25;5051113;28;20029;-64
2022/05/13 06:32:22;;;;;;;8.10;3.88;;;;;;;19.52;100.00;97052.38;5051083;28;20037;-64
2022/05/13 06:34:47;;;;;;;6.68;4.15;;;;;;;19.42;100.00;97047.72;5048107;28;20025;-65
2022/05/13 06:37:13;;;;;;;26.42;15.30;;;;;;;19.46;100.00;97049.28;5050494;28;20028;-65
2022/05/13 06:39:38;;;;;;;8.85;4.50;;;;;;;19.52;100.00;97046.81;5050630;28;20036;-65
2022/05/13 06:42:04;;;;;;;12.27;5.18;;;;;;;19.72;100.00;97046.16;5038985;28;20103;-64
2022/05/13 06:44:29;;;;;;;10.70;4.72;;;;;;;19.31;100.00;97053.41;5045910;28;20167;-66
2022/05/13 06:46:55;;;;;;;7.80;4.43;;;;;;;19.58;100.00;97047.91;5036870;28;20492;-65
2022/05/13 06:49:20;;;;;;;10.60;4.70;;;;;;;19.81;100.00;97044.44;5046409;28;20017;-65
2022/05/13 06:51:46;;;;;;;7.63;4.68;;;;;;;19.55;100.00;97045.94;5050739;28;20040;-65
2022/05/13 06:54:12;;;;;;;6.57;4.40;;;;;;;19.63;100.00;97041.09;5051265;28;20037;-64
2022/05/13 06:56:40;;;;;;;7.05;4.18;;;;;;;19.85;100.00;97047.94;5041951;28;20056;-64
2022/05/13 06:59:06;;;;;;;7.97;3.67;;;;;;;19.92;100.00;97037.94;5051071;28;20029;-65
2022/05/13 07:01:32;;;;;;;9.75;4.32;;;;;;;19.81;100.00;97049.22;5048996;28;20039;-65
2022/05/13 07:03:58;;;;;;;10.02;4.53;;;;;;;19.56;100.00;97055.09;5049295;28;20466;-64
2022/05/13 07:06:24;;;;;;;9.48;4.53;;;;;;;19.52;100.00;97049.59;5050052;28;20033;-65
2022/05/13 07:08:50;;;;;;;9.35;4.88;;;;;;;19.47;100.00;97055.59;5049619;28;20047;-64
2022/05/13 07:11:17;;;;;;;10.18;5.15;;;;;;;19.35;100.00;97054.16;5042760;28;20021;-65
2022/05/13 07:13:43;;;;;;;10.05;4.85;;;;;;;19.35;100.00;97050.59;5048146;28;20025;-65
2022/05/13 07:16:09;;;;;;;7.25;4.38;;;;;;;19.21;100.00;97046.81;5043510;28;20048;-66
2022/05/13 07:18:36;;;;;;;7.22;4.70;;;;;;;19.21;100.00;97054.34;5047387;28;20734;-65
2022/05/13 07:21:02;;;;;;;8.38;5.07;;;;;;;19.07;100.00;97053.31;5049853;28;20393;-65
2022/05/13 07:23:29;;;;;;;8.50;5.10;;;;;;;19.04;100.00;97048.59;5042554;28;20076;-65
2022/05/13 07:25:55;;;;;;;7.93;5.55;;;;;;;18.81;100.00;97054.78;5043505;28;20720;-65
2022/05/13 07:28:20;;;;;;;8.40;4.88;;;;;;;18.97;100.00;97053.44;5039984;28;20056;-65
2022/05/13 07:30:47;;;;;;;8.50;4.60;;;;;;;19.13;100.00;97052.84;5042482;28;20477;-65
2022/05/13 07:33:13;;;;;;;11.65;5.38;;;;;;;19.23;100.00;97054.69;5040093;28;20025;-65
2022/05/13 07:35:39;;;;;;;11.93;5.43;;;;;;;19.29;100.00;97051.06;5041998;28;20078;-65
2022/05/13 07:38:06;;;;;;;7.53;4.30;;;;;;;19.35;100.00;97056.94;5043064;28;20025;-65
2022/05/13 07:43:15;;;;;;;10.57;4.97;;;;;;;19.35;100.00;97065.25;5041257;28;20040;-65
2022/05/13 07:45:41;;;;;;;7.50;4.88;;;;;;;19.43;100.00;97063.97;5041323;28;20029;-65
2022/05/13 07:48:07;;;;;;;9.20;5.65;;;;;;;19.49;100.00;97070.63;5044217;28;20359;-65
2022/05/13 07:50:33;;;;;;;7.88;5.53;;;;;;;19.59;100.00;97062.56;5040501;28;20026;-66
2022/05/13 07:52:58;;;;;;;12.45;5.65;;;;;;;19.33;100.00;97064.91;5046173;28;20519;-64
2022/05/13 07:55:24;;;;;;;9.13;5.50;;;;;;;19.25;100.00;97066.19;5026721;28;20053;-67
2022/05/13 07:57:49;;;;;;;7.75;4.95;;;;;;;19.29;100.00;97073.28;5039913;28;20041;-65
2022/05/13 08:00:32;;;;;;;9.93;4.90;;;;;;;19.47;100.00;97075.03;5032781;28;20132;-64
2022/05/13 08:03:03;;;;;;;12.18;5.18;;;;;;;19.58;100.00;97072.13;5033101;28;20387;-64
2022/05/13 08:05:32;;;;;;;10.48;5.10;;;;;;;19.42;100.00;97067.16;5039984;28;20041;-64
2022/05/13 08:08:04;;;;;;;7.80;4.88;;;;;;;19.18;100.00;97061.50;5043690;28;20106;-64
2022/05/13 08:10:30;;;;;;;9.15;5.75;;;;;;;19.21;100.00;97073.78;5023545;28;20037;-65
2022/05/13 08:12:56;;;;;;;10.30;5.05;;;;;;;19.04;100.00;97073.56;5037527;28;20041;-64
2022/05/13 08:15:21;;;;;;;9.35;5.30;;;;;;;18.94;100.00;97080.00;5036992;28;20040;-64
2022/05/13 08:17:46;;;;;;;7.68;5.20;;;;;;;18.82;100.00;97075.78;5042772;28;20051;-64
2022/05/13 08:20:12;;;;;;;12.88;5.72;;;;;;;18.75;100.00;97077.81;5036349;28;20075;-64
2022/05/13 08:22:37;;;;;;;9.80;5.70;;;;;;;19.12;100.00;97079.81;5039675;28;20140;-65
2022/05/13 08:25:03;;;;;;;12.68;6.57;;;;;;;19.28;100.00;97085.59;5030614;28;20040;-64
2022/05/13 08:27:32;;;;;;;11.13;5.50;;;;;;;19.42;100.00;97087.41;5029747;28;20048;-65
2022/05/13 08:29:58;;;;;;;12.52;5.50;;;;;;;19.62;100.00;97081.97;5036030;28;20104;-65
2022/05/13 08:32:24;;;;;;;9.38;5.22;;;;;;;19.39;100.00;97077.13;5018277;28;20062;-65
2022/05/13 08:34:49;;;;;;;7.78;5.57;;;;;;;19.32;100.00;97084.75;5023567;28;20050;-64
2022/05/13 08:37:15;;;;;;;8.90;4.78;;;;;;;19.01;100.00;97088.25;5025839;28;20124;-65
2022/05/13 08:39:40;;;;;;;11.85;4.65;;;;;;;18.73;100.00;97095.66;5039606;28;20033;-65
2022/05/13 08:42:20;;;;;;;9.68;5.15;;;;;;;18.72;100.00;97080.19;5037870;28;20045;-64
2022/05/13 08:44:47;;;;;;;8.27;5.57;;;;;;;19.04;100.00;97081.13;5042102;28;20056;-68
2022/05/13 08:47:30;;;;;;;11.82;5.43;;;;;;;19.09;100.00;97084.22;5055522;22;20045;-66
2022/05/13 08:50:09;;;;;;;10.23;5.72;;;;;;;19.14;100.00;97088.53;5042902;28;20094;-66
2022/05/13 08:53:07;;;;;;;6.65;4.70;;;;;;;19.10;100.00;97085.81;5006965;28;20496;-65
2022/05/13 08:55:38;;;;;;;11.80;6.05;;;;;;;19.26;100.00;97087.97;5046856;28;20083;-65
2022/05/13 08:58:09;;;;;;;7.78;5.45;;;;;;;19.26;100.00;97087.97;5020145;28;20041;-64
2022/05/13 09:00:42;;;;;;;10.43;5.20;;;;;;;19.27;100.00;97089.56;5004393;28;20087;-65
2022/05/13 09:03:24;;;;;;;9.70;4.93;;;;;;;19.17;100.00;97095.25;5018742;28;20195;-66
2022/05/13 09:06:00;;;;;;;12.02;5.20;;;;;;;19.18;100.00;97097.59;5023289;28;20072;-66
2022/05/13 09:08:27;;;;;;;11.30;4.80;;;;;;;19.20;100.00;97092.44;5000081;28;20053;-66
2022/05/13 09:10:52;;;;;;;13.30;5.85;;;;;;;19.14;100.00;97101.63;5028619;28;20535;-66
2022/05/13 09:13:51;;;;;;;11.38;5.10;;;;;;;19.02;100.00;97095.41;5026069;28;20156;-66
2022/05/13 09:16:41;;;;;;;8.77;4.72;;;;;;;19.02;100.00;97102.94;5014448;28;20048;-67
2022/05/13 09:19:14;;;;;;;;;;;;;;;18.88;100.00;97107.44;5009577;28;20049;-66
2022/05/13 09:21:43;;;;;;;8.27;4.85;;;;;;;18.90;100.00;97110.56;5011547;28;19921;-66
2022/05/13 09:24:10;;;;;;;9.15;5.38;;;;;;;18.89;100.00;97111.78;5003689;28;20141;-66
2022/05/13 09:26:38;;;;;;;6.57;4.50;;;;;;;19.00;100.00;97108.91;5020375;28;20053;-67
2022/05/13 09:29:16;;;;;;;9.10;5.28;;;;;;;19.06;100.00;97120.34;5016286;28;20108;-65
2022/05/13 09:32:07;;;;;;;9.68;4.60;;;;;;;18.90;100.00;97123.69;5002764;28;20056;-66
2022/05/13 09:34:48;;;;;;;9.02;5.05;;;;;;;18.67;100.00;97121.47;4999509;28;20497;-66
2022/05/13 09:37:21;;;;;;;11.18;5.72;;;;;;;18.60;100.00;97130.66;5013140;28;20129;-65
2022/05/13 09:39:50;;;;;;;10.45;4.80;;;;;;;18.27;100.00;97127.34;5040214;28;20052;-66
2022/05/13 09:42:22;;;;;;;11.57;5.00;;;;;;;18.37;100.00;97117.38;5023405;28;20076;-65
2022/05/13 09:44:48;;;;;;;7.97;5.80;;;;;;;18.10;100.00;97133.81;5022008;28;20121;-65
2022/05/13 09:47:24;;;;;;;11.82;5.47;;;;;;;18.28;100.00;97120.63;5015997;28;20112;-67
2022/05/13 09:49:50;;;;;;;9.52;4.82;;;;;;;18.59;100.00;97128.31;5021556;28;20124;-66
2022/05/13 09:52:25;;;;;;;8.52;5.28;;;;;;;18.90;100.00;97127.22;5015509;28;20137;-67
2022/05/13 09:54:52;;;;;;;9.23;5.55;;;;;;;19.15;100.00;97123.41;5021242;28;20048;-66
2022/05/13 09:57:34;;;;;;;8.43;5.30;;;;;;;19.48;100.00;97124.63;5015263;28;20044;-66
2022/05/13 09:59:59;;;;;;;8.27;6.00;;;;;;;19.38;100.00;97122.75;5020275;28;21196;-66
2022/05/13 10:02:35;;;;;;;7.40;5.00;;;;;;;19.56;100.00;97119.78;5016012;28;20060;-68
2022/05/13 10:05:22;;;;;;;9.05;5.60;;;;;;;19.67;100.00;97127.97;5025979;28;20292;-65
2022/05/13 10:07:51;;;;;;;8.02;4.93;;;;;;;19.82;100.00;97123.81;5022555;28;20069;-66
2022/05/13 10:13:57;;;;;;;9.90;5.22;;;;;;;19.72;100.00;97126.72;5021813;28;20486;-65
2022/05/13 10:16:30;;;;;;;9.75;5.00;;;;;;;19.68;100.00;97113.66;5012248;28;20502;-67
2022/05/13 10:19:25;;;;;;;9.82;5.13;;;;;;;19.64;100.00;97115.72;5001801;28;20069;-67
2022/05/13 10:22:02;;;;;;;8.00;5.35;;;;;;;19.59;100.00;97123.69;5018274;28;21109;-67
2022/05/13 10:24:40;;;;;;;9.68;5.43;;;;;;;19.56;100.00;97113.44;5014857;28;20110;-66
2022/05/13 10:27:09;;;;;;;8.65;4.95;;;;;;;19.85;100.00;97117.44;5002593;28;20053;-66
2022/05/13 10:29:48;;;;;;;10.68;5.68;;;;;;;19.77;99.42;97123.50;5017304;28;20045;-66
2022/05/13 10:32:22;;;;;;;12.15;5.10;;;;;;;19.75;97.63;97115.56;5014351;28;20041;-64
2022/05/13 10:34:53;;;;;;;10.05;4.47;;;;;;;19.29;100.00;97116.94;5019895;28;20478;-66
2022/05/13 10:37:46;;;;;;;6.13;3.97;;;;;;;19.35;100.00;97117.25;5013223;28;20141;-66
2022/05/13 10:40:16;;;;;;;8.68;4.10;;;;;;;19.23;100.00;97126.91;5012782;28;20038;-66
2022/05/13 10:42:48;;;;;;;6.53;4.50;;;;;;;19.57;100.00;97117.78;5019351;28;20045;-68
2022/05/13 10:45:24;;;;;;;11.63;4.07;;;;;;;19.46;93.23;97127.03;5014590;28;20065;-66
2022/05/13 10:47:58;;;;;;;8.77;4.35;;;;;;;19.15;93.59;97117.09;5019196;28;20041;-67
2022/05/13 10:50:33;;;;;;;10.30;3.92;;;;;;;19.15;91.18;97126.19;5013401;28;20929;-68
2022/05/13 10:53:21;;;;;;;9.23;3.70;;;;;;;19.35;90.31;97123.59;5016410;28;20052;-68
2022/05/13 10:56:15;;;;;;;8.85;4.53;;;;;;;19.26;88.86;97131.63;4998881;28;20042;-66
2022/05/13 10:59:00;;;;;;;7.85;4.60;;;;;;;18.71;91.84;97131.34;5018330;28;20581;-66
2022/05/13 11:01:49;;;;;;;11.65;4.22;;;;;;;18.89;92.35;97130.44;5013852;28;20053;-67
2022/05/13 11:04:50;;;;;;;17.77;8.07;;;;;;;19.21;91.01;97130.09;5011816;28;20037;-68
2022/05/13 11:07:44;;;;;;;8.05;4.38;;;;;;;19.55;90.20;97134.06;5012886;28;20045;-66
2022/05/13 11:10:31;;;;;;;12.45;4.63;;;;;;;19.42;92.22;97140.16;5014124;28;20041;-66
2022/05/13 11:13:12;;;;;;;10.75;4.78;;;;;;;19.60;93.13;97139.16;5016513;28;20049;-66
2022/05/13 11:16:01;;;;;;;9.77;4.10;;;;;;;19.40;94.18;97142.56;5018741;28;20045;-67
2022/05/13 11:18:48;;;;;;;6.18;4.10;;;;;;;19.53;96.10;97142.81;5013690;28;20463;-67
2022/05/13 11:21:23;;;;;;;8.55;4.13;;;;;;;19.56;95.79;97136.44;5008679;28;20064;-66
2022/05/13 11:26:59;;;;;;;10.20;3.75;;;;;;;20.13;93.14;97136.91;5019563;28;20099;-66
2022/05/13 11:29:51;;;;;;;7.55;4.50;;;;;;;20.07;93.54;97141.38;5000910;28;20048;-66
2022/05/13 11:32:35;;;;;;;17.27;5.93;;;;;;;20.17;93.76;97135.66;5012471;28;20037;-64
2022/05/13 11:35:38;;;;;;;11.27;4.90;;;;;;;20.33;90.79;97135.03;4995824;28;20573;-65
2022/05/13 11:38:26;;;;;;;6.82;3.75;;;;;;;20.30;89.36;97140.63;5018373;28;20049;-64
2022/05/13 11:41:04;;;;;;;9.70;4.03;;;;;;;20.35;86.25;97135.38;5023186;28;20056;-65
2022/05/13 11:43:59;;;;;;;9.57;3.95;;;;;;;20.30;88.18;97133.06;5001432;28;20351;-65
2022/05/13 11:46:44;;;;;;;6.43;3.75;;;;;;;20.19;85.83;97130.44;5017278;28;20071;-65
2022/05/13 11:49:29;;;;;;;8.63;4.18;;;;;;;20.56;84.77;97120.34;5015313;28;20125;-65
2022/05/13 11:51:57;;;;;;;11.85;4.20;;;;;;;20.93;83.60;97121.31;5021483;28;20037;-65
2022/05/13 11:54:25;;;;;;;8.23;3.72;;;;;;;20.83;82.59;97121.50;5001427;28;20539;-65
2022/05/13 11:57:14;;;;;;;9.63;4.63;;;;;;;20.79;81.61;97122.34;5025434;28;20820;-65
2022/05/13 11:59:42;;;;;;;8.73;4.78;;;;;;;21.17;79.11;97124.06;5023859;28;20058;-65